Time;durP1;ratioP1;P1;durP2;ratioP2;P2;SDS_P1;SDS_P2;PMS_P1;PMS_P2;Temp;Humidity;BMP_temperature;BMP_pressure;BME280_temperature;BME280_humidity;BME280_pressure;Samples;Min_cycle;Max_cycle;Signal;HPM_P1;HPM_P2
2022/12/14 00:00:00;;;;;;;5.0;4.9;;;;;;;-2.7;100.0;100290;;;;
2022/12/14 00:01:05;;;;;;;5.0;4.9;;;;;;;-2.6;100.0;100290;;;;
2022/12/14 00:02:00;;;;;;;5.0;4.9;;;;;;;-2.6;100.0;100290;;;;
2022/12/14 00:03:00;;;;;;;5.0;4.9;;;;;;;-2.6;100.0;100290;;;;
2022/12/14 00:04:00;;;;;;;5.0;4.9;;;;;;;-2.6;100.0;100290;;;;
2022/12/14 00:05:00;;;;;;;5.0;4.9;;;;;;;-2.7;100.0;100300;;;;
2022/12/14 00:06:07;;;;;;;4.8;4.7;;;;;;;-2.7;100.0;100300;;;;
2022/12/14 00:07:00;;;;;;;4.8;4.7;;;;;;;-2.6;100.0;100300;;;;
2022/12/14 00:08:00;;;;;;;4.8;4.7;;;;;;;-2.6;100.0;100300;;;;
2022/12/14 00:09:02;;;;;;;4.8;4.7;;;;;;;-2.5;100.0;100300;;;;
2022/12/14 00:10:00;;;;;;;4.8;4.7;;;;;;;-2.5;100.0;100300;;;;
2022/12/14 00:11:00;;;;;;;4.8;4.7;;;;;;;-2.6;100.0;100300;;;;
2022/12/14 00:12:00;;;;;;;4.8;4.7;;;;;;;-2.6;100.0;100300;;;;
2022/12/14 00:13:00;;;;;;;4.8;4.7;;;;;;;-2.6;100.0;100290;;;;
2022/12/14 00:14:01;;;;;;;4.8;4.7;;;;;;;-2.6;100.0;100290;;;;
2022/12/14 00:15:00;;;;;;;4.8;4.7;;;;;;;-2.6;100.0;100290;;;;
2022/12/14 00:16:04;;;;;;;4.8;4.7;;;;;;;-2.6;100.0;100290;;;;
2022/12/14 00:17:00;;;;;;;4.8;4.7;;;;;;;-2.7;100.0;100270;;;;
2022/12/14 00:18:00;;;;;;;4.8;4.7;;;;;;;-2.7;100.0;100270;;;;
2022/12/14 00:19:00;;;;;;;4.8;4.7;;;;;;;-2.7;100.0;100260;;;;
2022/12/14 00:20:00;;;;;;;4.8;4.7;;;;;;;-2.7;100.0;100260;;;;
2022/12/14 00:21:02;;;;;;;4.8;4.7;;;;;;;-2.7;100.0;100260;;;;
2022/12/14 00:22:00;;;;;;;4.8;4.7;;;;;;;-2.7;100.0;100260;;;;
2022/12/14 00:23:00;;;;;;;4.8;4.7;;;;;;;-2.7;100.0;100260;;;;
2022/12/14 00:24:00;;;;;;;4.8;4.7;;;;;;;-2.7;100.0;100260;;;;
2022/12/14 00:25:01;;;;;;;4.8;4.7;;;;;;;-2.8;100.0;100260;;;;
2022/12/14 00:26:07;;;;;;;4.8;4.7;;;;;;;-2.8;100.0;100260;;;;
2022/12/14 00:27:00;;;;;;;4.8;4.7;;;;;;;-2.8;100.0;100260;;;;
2022/12/14 00:28:00;;;;;;;4.8;4.7;;;;;;;-2.8;100.0;100260;;;;
2022/12/14 00:29:00;;;;;;;4.8;4.7;;;;;;;-2.7;100.0;100260;;;;
2022/12/14 00:30:00;;;;;;;4.8;4.7;;;;;;;-2.7;100.0;100260;;;;
2022/12/14 00:31:00;;;;;;;4.8;4.7;;;;;;;-2.5;100.0;100270;;;;
2022/12/14 00:32:00;;;;;;;4.8;4.7;;;;;;;-2.5;100.0;100270;;;;
2022/12/14 00:33:00;;;;;;;4.8;4.7;;;;;;;-2.6;100.0;100270;;;;
2022/12/14 00:34:00;;;;;;;4.8;4.7;;;;;;;-2.6;100.0;100270;;;;
2022/12/14 00:35:01;;;;;;;4.8;4.7;;;;;;;-2.7;100.0;100270;;;;
2022/12/14 00:36:00;;;;;;;4.8;4.7;;;;;;;-2.7;100.0;100270;;;;
2022/12/14 00:37:00;;;;;;;4.8;4.7;;;;;;;-2.6;100.0;100260;;;;
2022/12/14 00:38:00;;;;;;;4.8;4.7;;;;;;;-2.6;100.0;100260;;;;
2022/12/14 00:39:00;;;;;;;4.8;4.7;;;;;;;-2.7;100.0;100270;;;;
2022/12/14 00:40:00;;;;;;;4.8;4.7;;;;;;;-2.7;100.0;100270;;;;
2022/12/14 00:41:00;;;;;;;4.8;4.7;;;;;;;-2.8;100.0;100270;;;;
2022/12/14 00:42:00;;;;;;;4.8;4.7;;;;;;;-2.8;100.0;100270;;;;
2022/12/14 00:43:00;;;;;;;4.8;4.7;;;;;;;-2.7;100.0;100270;;;;
2022/12/14 00:44:00;;;;;;;4.8;4.7;;;;;;;-2.7;100.0;100270;;;;
2022/12/14 00:45:01;;;;;;;4.8;4.7;;;;;;;-2.7;100.0;100270;;;;
2022/12/14 00:46:00;;;;;;;4.5;4.4;;;;;;;-2.7;100.0;100270;;;;
2022/12/14 00:47:00;;;;;;;4.5;4.4;;;;;;;-2.7;100.0;100260;;;;
2022/12/14 00:48:01;;;;;;;4.5;4.4;;;;;;;-2.7;100.0;100260;;;;
2022/12/14 00:49:00;;;;;;;4.5;4.4;;;;;;;-2.7;100.0;100250;;;;
2022/12/14 00:50:00;;;;;;;4.5;4.4;;;;;;;-2.7;100.0;100250;;;;
2022/12/14 00:51:00;;;;;;;4.5;4.4;;;;;;;-2.8;100.0;100250;;;;
2022/12/14 00:52:00;;;;;;;4.5;4.4;;;;;;;-2.8;100.0;100250;;;;
2022/12/14 00:53:00;;;;;;;4.5;4.4;;;;;;;-2.7;100.0;100240;;;;
2022/12/14 00:54:00;;;;;;;4.5;4.4;;;;;;;-2.7;100.0;100240;;;;
2022/12/14 00:55:00;;;;;;;4.5;4.4;;;;;;;-2.7;100.0;100240;;;;
2022/12/14 00:56:04;;;;;;;4.5;4.4;;;;;;;-2.7;100.0;100240;;;;
2022/12/14 00:57:00;;;;;;;4.5;4.4;;;;;;;-2.8;100.0;100240;;;;
2022/12/14 00:58:00;;;;;;;4.5;4.4;;;;;;;-2.8;100.0;100240;;;;
2022/12/14 00:59:00;;;;;;;4.5;4.4;;;;;;;-2.8;100.0;100230;;;;
2022/12/14 01:00:00;;;;;;;4.5;4.4;;;;;;;-2.8;100.0;100230;;;;
2022/12/14 01:01:01;;;;;;;4.5;4.4;;;;;;;-2.8;100.0;100230;;;;
2022/12/14 01:02:00;;;;;;;4.5;4.4;;;;;;;-2.8;100.0;100230;;;;
2022/12/14 01:03:00;;;;;;;4.5;4.4;;;;;;;-2.8;100.0;100220;;;;
2022/12/14 01:05:00;;;;;;;4.5;4.4;;;;;;;-2.9;100.0;100220;;;;
2022/12/14 01:06:00;;;;;;;4.3;4.2;;;;;;;-2.9;100.0;100220;;;;
2022/12/14 01:07:00;;;;;;;4.3;4.2;;;;;;;-2.8;100.0;100220;;;;
2022/12/14 01:08:00;;;;;;;4.3;4.2;;;;;;;-2.8;100.0;100220;;;;
2022/12/14 01:09:00;;;;;;;4.3;4.2;;;;;;;-2.7;100.0;100210;;;;
2022/12/14 01:10:00;;;;;;;4.3;4.2;;;;;;;-2.7;100.0;100210;;;;
2022/12/14 01:11:08;;;;;;;4.3;4.2;;;;;;;-2.8;100.0;100210;;;;
2022/12/14 01:12:00;;;;;;;4.3;4.2;;;;;;;-2.8;100.0;100210;;;;
2022/12/14 01:13:00;;;;;;;4.3;4.2;;;;;;;-2.8;100.0;100210;;;;
2022/12/14 01:14:00;;;;;;;4.3;4.2;;;;;;;-2.8;100.0;100210;;;;
2022/12/14 01:15:00;;;;;;;4.3;4.2;;;;;;;-2.8;100.0;100200;;;;
2022/12/14 01:16:05;;;;;;;4.3;4.2;;;;;;;-2.8;100.0;100200;;;;
2022/12/14 01:17:00;;;;;;;4.3;4.2;;;;;;;-2.8;100.0;100200;;;;
2022/12/14 01:18:00;;;;;;;4.3;4.2;;;;;;;-2.8;100.0;100200;;;;
2022/12/14 01:19:01;;;;;;;4.3;4.2;;;;;;;-2.9;100.0;100200;;;;
2022/12/14 01:20:00;;;;;;;4.3;4.2;;;;;;;-2.9;100.0;100200;;;;
2022/12/14 01:21:09;;;;;;;4.3;4.2;;;;;;;-2.7;100.0;100200;;;;
2022/12/14 01:22:00;;;;;;;4.3;4.2;;;;;;;-2.7;100.0;100200;;;;
2022/12/14 01:23:00;;;;;;;4.3;4.2;;;;;;;-2.8;100.0;100200;;;;
2022/12/14 01:24:01;;;;;;;4.3;4.2;;;;;;;-2.8;100.0;100200;;;;
2022/12/14 01:25:00;;;;;;;4.3;4.2;;;;;;;-2.9;100.0;100200;;;;
2022/12/14 01:26:00;;;;;;;4.6;4.5;;;;;;;-2.9;100.0;100200;;;;
2022/12/14 01:27:00;;;;;;;4.6;4.5;;;;;;;-2.9;100.0;100200;;;;
2022/12/14 01:28:00;;;;;;;4.6;4.5;;;;;;;-2.9;100.0;100200;;;;
2022/12/14 01:29:00;;;;;;;4.6;4.5;;;;;;;-2.9;100.0;100190;;;;
2022/12/14 01:30:00;;;;;;;4.6;4.5;;;;;;;-2.9;100.0;100190;;;;
2022/12/14 01:31:08;;;;;;;4.6;4.5;;;;;;;-3.0;100.0;100190;;;;
2022/12/14 01:32:00;;;;;;;4.6;4.5;;;;;;;-3.0;100.0;100190;;;;
2022/12/14 01:33:00;;;;;;;4.6;4.5;;;;;;;-3.0;100.0;100190;;;;
2022/12/14 01:34:00;;;;;;;4.6;4.5;;;;;;;-3.0;100.0;100190;;;;
2022/12/14 01:35:00;;;;;;;4.6;4.5;;;;;;;-2.8;100.0;100190;;;;
2022/12/14 01:36:04;;;;;;;4.6;4.5;;;;;;;-2.8;100.0;100190;;;;
2022/12/14 01:37:00;;;;;;;4.6;4.5;;;;;;;-3.0;100.0;100190;;;;
2022/12/14 01:38:00;;;;;;;4.6;4.5;;;;;;;-3.0;100.0;100190;;;;
2022/12/14 01:39:03;;;;;;;4.6;4.5;;;;;;;-2.9;100.0;100190;;;;
2022/12/14 01:40:00;;;;;;;4.6;4.5;;;;;;;-2.9;100.0;100190;;;;
2022/12/14 01:41:00;;;;;;;4.6;4.5;;;;;;;-2.9;100.0;100180;;;;
2022/12/14 01:42:00;;;;;;;4.6;4.5;;;;;;;-2.9;100.0;100180;;;;
2022/12/14 01:43:00;;;;;;;4.6;4.5;;;;;;;-2.8;100.0;100190;;;;
2022/12/14 01:44:01;;;;;;;4.6;4.5;;;;;;;-2.8;100.0;100190;;;;
2022/12/14 01:45:00;;;;;;;4.8;4.7;;;;;;;-2.9;100.0;100190;;;;
2022/12/14 01:46:00;;;;;;;4.8;4.7;;;;;;;-2.9;100.0;100190;;;;
2022/12/14 01:47:13;;;;;;;4.8;4.7;;;;;;;-2.9;100.0;100190;;;;
2022/12/14 01:48:01;;;;;;;4.8;4.7;;;;;;;-2.9;100.0;100190;;;;
2022/12/14 01:49:06;;;;;;;4.8;4.7;;;;;;;-3.0;100.0;100190;;;;
2022/12/14 01:50:04;;;;;;;4.8;4.7;;;;;;;-3.0;100.0;100190;;;;
2022/12/14 01:51:00;;;;;;;4.8;4.7;;;;;;;-2.9;100.0;100190;;;;
2022/12/14 01:52:06;;;;;;;4.8;4.7;;;;;;;-2.9;100.0;100190;;;;
2022/12/14 01:53:03;;;;;;;4.8;4.7;;;;;;;-3.0;100.0;100180;;;;
2022/12/14 01:54:02;;;;;;;4.8;4.7;;;;;;;-3.0;100.0;100180;;;;
2022/12/14 01:55:02;;;;;;;4.8;4.7;;;;;;;-3.0;100.0;100190;;;;
2022/12/14 01:56:00;;;;;;;4.8;4.7;;;;;;;-3.0;100.0;100190;;;;
2022/12/14 01:57:00;;;;;;;4.8;4.7;;;;;;;-3.0;100.0;100190;;;;
2022/12/14 01:58:03;;;;;;;4.8;4.7;;;;;;;-3.0;100.0;100190;;;;
2022/12/14 01:59:03;;;;;;;4.8;4.7;;;;;;;-2.9;100.0;100190;;;;
2022/12/14 02:00:07;;;;;;;4.8;4.7;;;;;;;-2.9;100.0;100190;;;;
2022/12/14 02:01:01;;;;;;;4.8;4.7;;;;;;;-2.9;100.0;100190;;;;
2022/12/14 02:02:01;;;;;;;4.8;4.7;;;;;;;-2.9;100.0;100190;;;;
2022/12/14 02:03:04;;;;;;;4.8;4.7;;;;;;;-3.0;100.0;100180;;;;
2022/12/14 02:04:01;;;;;;;4.8;4.7;;;;;;;-3.0;100.0;100180;;;;
2022/12/14 02:05:01;;;;;;;4.0;3.9;;;;;;;-2.8;100.0;100180;;;;
2022/12/14 02:06:02;;;;;;;4.0;3.9;;;;;;;-2.8;100.0;100180;;;;
2022/12/14 02:07:02;;;;;;;4.0;3.9;;;;;;;-2.9;100.0;100180;;;;
2022/12/14 02:08:01;;;;;;;4.0;3.9;;;;;;;-2.9;100.0;100180;;;;
2022/12/14 02:09:01;;;;;;;4.0;3.9;;;;;;;-3.0;100.0;100180;;;;
2022/12/14 02:10:01;;;;;;;4.0;3.9;;;;;;;-3.0;100.0;100180;;;;
2022/12/14 02:11:01;;;;;;;4.0;3.9;;;;;;;-3.0;100.0;100170;;;;
2022/12/14 02:12:05;;;;;;;4.0;3.9;;;;;;;-3.0;100.0;100170;;;;
2022/12/14 02:13:08;;;;;;;4.0;3.9;;;;;;;-3.0;100.0;100170;;;;
2022/12/14 02:14:00;;;;;;;4.0;3.9;;;;;;;-3.0;100.0;100170;;;;
2022/12/14 02:15:00;;;;;;;4.0;3.9;;;;;;;-3.0;100.0;100170;;;;
2022/12/14 02:16:00;;;;;;;4.0;3.9;;;;;;;-3.0;100.0;100170;;;;
2022/12/14 02:17:00;;;;;;;4.0;3.9;;;;;;;-3.0;100.0;100170;;;;
2022/12/14 02:18:02;;;;;;;4.0;3.9;;;;;;;-3.0;100.0;100170;;;;
2022/12/14 02:19:00;;;;;;;4.0;3.9;;;;;;;-2.9;100.0;100160;;;;
2022/12/14 02:20:01;;;;;;;4.0;3.9;;;;;;;-2.9;100.0;100160;;;;
2022/12/14 02:21:10;;;;;;;4.0;3.9;;;;;;;-2.8;100.0;100160;;;;
2022/12/14 02:22:10;;;;;;;4.0;3.9;;;;;;;-2.8;100.0;100160;;;;
2022/12/14 02:23:10;;;;;;;4.0;3.9;;;;;;;-2.8;100.0;100160;;;;
2022/12/14 02:24:03;;;;;;;4.0;3.9;;;;;;;-2.8;100.0;100160;;;;
2022/12/14 02:25:10;;;;;;;4.5;4.4;;;;;;;-2.8;100.0;100160;;;;
2022/12/14 02:26:10;;;;;;;4.5;4.4;;;;;;;-2.8;100.0;100160;;;;
2022/12/14 02:27:07;;;;;;;4.5;4.4;;;;;;;-2.8;100.0;100160;;;;
2022/12/14 02:28:10;;;;;;;4.5;4.4;;;;;;;-2.8;100.0;100160;;;;
2022/12/14 02:29:10;;;;;;;4.5;4.4;;;;;;;-2.8;100.0;100160;;;;
2022/12/14 02:30:03;;;;;;;4.5;4.4;;;;;;;-2.8;100.0;100160;;;;
2022/12/14 02:31:10;;;;;;;4.5;4.4;;;;;;;-2.8;100.0;100160;;;;
2022/12/14 02:32:10;;;;;;;4.5;4.4;;;;;;;-2.8;100.0;100160;;;;
2022/12/14 02:33:08;;;;;;;4.5;4.4;;;;;;;-2.8;100.0;100150;;;;
2022/12/14 02:34:04;;;;;;;4.5;4.4;;;;;;;-2.8;100.0;100150;;;;
2022/12/14 02:35:04;;;;;;;4.5;4.4;;;;;;;-2.9;100.0;100150;;;;
2022/12/14 02:36:05;;;;;;;4.5;4.4;;;;;;;-2.9;100.0;100150;;;;
2022/12/14 02:37:10;;;;;;;4.5;4.4;;;;;;;-2.9;100.0;100140;;;;
2022/12/14 02:38:06;;;;;;;4.5;4.4;;;;;;;-2.9;100.0;100140;;;;
2022/12/14 02:39:10;;;;;;;4.5;4.4;;;;;;;-2.8;100.0;100140;;;;
2022/12/14 02:40:01;;;;;;;4.5;4.4;;;;;;;-2.8;100.0;100140;;;;
2022/12/14 02:41:10;;;;;;;4.5;4.4;;;;;;;-2.8;100.0;100140;;;;
2022/12/14 02:42:06;;;;;;;4.5;4.4;;;;;;;-2.8;100.0;100140;;;;
2022/12/14 02:43:03;;;;;;;4.5;4.4;;;;;;;-2.9;100.0;100130;;;;
2022/12/14 02:44:01;;;;;;;4.5;4.4;;;;;;;-2.9;100.0;100130;;;;
2022/12/14 02:45:07;;;;;;;4.6;4.5;;;;;;;-2.8;100.0;100140;;;;
2022/12/14 02:46:08;;;;;;;4.6;4.5;;;;;;;-2.8;100.0;100140;;;;
2022/12/14 02:47:07;;;;;;;4.6;4.5;;;;;;;-2.8;100.0;100140;;;;
2022/12/14 02:48:02;;;;;;;4.6;4.5;;;;;;;-2.8;100.0;100140;;;;
2022/12/14 02:49:10;;;;;;;4.6;4.5;;;;;;;-2.8;100.0;100140;;;;
2022/12/14 02:50:07;;;;;;;4.6;4.5;;;;;;;-2.8;100.0;100140;;;;
2022/12/14 02:51:07;;;;;;;4.6;4.5;;;;;;;-2.9;100.0;100150;;;;
2022/12/14 02:52:05;;;;;;;4.6;4.5;;;;;;;-2.9;100.0;100150;;;;
2022/12/14 02:53:10;;;;;;;4.6;4.5;;;;;;;-2.8;100.0;100150;;;;
2022/12/14 02:54:03;;;;;;;4.6;4.5;;;;;;;-2.8;100.0;100150;;;;
2022/12/14 02:55:10;;;;;;;4.6;4.5;;;;;;;-2.7;100.0;100150;;;;
2022/12/14 02:56:02;;;;;;;4.6;4.5;;;;;;;-2.7;100.0;100150;;;;
2022/12/14 02:57:04;;;;;;;4.6;4.5;;;;;;;-2.9;100.0;100150;;;;
2022/12/14 02:58:05;;;;;;;4.6;4.5;;;;;;;-2.9;100.0;100150;;;;
2022/12/14 02:59:01;;;;;;;4.6;4.5;;;;;;;-2.8;100.0;100150;;;;
2022/12/14 03:00:02;;;;;;;4.6;4.5;;;;;;;-2.8;100.0;100150;;;;
2022/12/14 03:01:00;;;;;;;4.6;4.5;;;;;;;-2.8;100.0;100150;;;;
2022/12/14 03:02:02;;;;;;;4.6;4.5;;;;;;;-2.8;100.0;100150;;;;
2022/12/14 03:03:01;;;;;;;4.6;4.5;;;;;;;-2.7;100.0;100150;;;;
2022/12/14 03:04:00;;;;;;;4.6;4.5;;;;;;;-2.7;100.0;100150;;;;
2022/12/14 03:05:01;;;;;;;4.9;4.8;;;;;;;-2.9;100.0;100150;;;;
2022/12/14 03:06:01;;;;;;;4.9;4.8;;;;;;;-2.9;100.0;100150;;;;
2022/12/14 03:07:03;;;;;;;4.9;4.8;;;;;;;-2.9;100.0;100150;;;;
2022/12/14 03:08:05;;;;;;;4.9;4.8;;;;;;;-2.9;100.0;100150;;;;
2022/12/14 03:09:02;;;;;;;4.9;4.8;;;;;;;-2.8;100.0;100140;;;;
2022/12/14 03:10:04;;;;;;;4.9;4.8;;;;;;;-2.8;100.0;100140;;;;
2022/12/14 03:11:02;;;;;;;4.9;4.8;;;;;;;-2.8;100.0;100140;;;;
2022/12/14 03:12:04;;;;;;;4.9;4.8;;;;;;;-2.8;100.0;100140;;;;
2022/12/14 03:13:05;;;;;;;4.9;4.8;;;;;;;-2.6;100.0;100140;;;;
2022/12/14 03:14:04;;;;;;;4.9;4.8;;;;;;;-2.6;100.0;100140;;;;
2022/12/14 03:15:01;;;;;;;4.9;4.8;;;;;;;-2.7;100.0;100140;;;;
2022/12/14 03:16:05;;;;;;;4.9;4.8;;;;;;;-2.7;100.0;100140;;;;
2022/12/14 03:17:04;;;;;;;4.9;4.8;;;;;;;-2.7;100.0;100140;;;;
2022/12/14 03:18:02;;;;;;;4.9;4.8;;;;;;;-2.7;100.0;100140;;;;
2022/12/14 03:19:05;;;;;;;4.9;4.8;;;;;;;-2.8;100.0;100140;;;;
2022/12/14 03:20:05;;;;;;;4.9;4.8;;;;;;;-2.8;100.0;100140;;;;
2022/12/14 03:21:02;;;;;;;4.9;4.8;;;;;;;-2.9;100.0;100130;;;;
2022/12/14 03:22:06;;;;;;;4.9;4.8;;;;;;;-2.9;100.0;100130;;;;
2022/12/14 03:23:03;;;;;;;4.9;4.8;;;;;;;-2.9;100.0;100130;;;;
2022/12/14 03:24:03;;;;;;;4.9;4.8;;;;;;;-2.9;100.0;100130;;;;
2022/12/14 03:25:04;;;;;;;6.2;6.0;;;;;;;-2.8;100.0;100130;;;;
2022/12/14 03:26:10;;;;;;;6.2;6.0;;;;;;;-2.8;100.0;100130;;;;
2022/12/14 03:27:03;;;;;;;6.2;6.0;;;;;;;-2.9;100.0;100140;;;;
2022/12/14 03:28:05;;;;;;;6.2;6.0;;;;;;;-2.9;100.0;100140;;;;
2022/12/14 03:29:04;;;;;;;6.2;6.0;;;;;;;-2.9;100.0;100140;;;;
2022/12/14 03:30:04;;;;;;;6.2;6.0;;;;;;;-2.9;100.0;100140;;;;
2022/12/14 03:31:04;;;;;;;6.2;6.0;;;;;;;-3.0;100.0;100140;;;;
2022/12/14 03:32:02;;;;;;;6.2;6.0;;;;;;;-3.0;100.0;100140;;;;
2022/12/14 03:33:03;;;;;;;6.2;6.0;;;;;;;-2.9;100.0;100140;;;;
2022/12/14 03:34:02;;;;;;;6.2;6.0;;;;;;;-2.9;100.0;100140;;;;
2022/12/14 03:35:03;;;;;;;6.2;6.0;;;;;;;-2.7;100.0;100140;;;;
2022/12/14 03:36:06;;;;;;;6.2;6.0;;;;;;;-2.7;100.0;100140;;;;
2022/12/14 03:37:07;;;;;;;6.2;6.0;;;;;;;-2.8;100.0;100130;;;;
2022/12/14 03:38:06;;;;;;;6.2;6.0;;;;;;;-2.8;100.0;100130;;;;
2022/12/14 03:39:02;;;;;;;6.2;6.0;;;;;;;-2.8;100.0;100120;;;;
2022/12/14 03:40:00;;;;;;;6.2;6.0;;;;;;;-2.8;100.0;100120;;;;
2022/12/14 03:41:10;;;;;;;6.2;6.0;;;;;;;-2.9;100.0;100120;;;;
2022/12/14 03:42:00;;;;;;;6.2;6.0;;;;;;;-2.9;100.0;100120;;;;
2022/12/14 03:43:07;;;;;;;6.2;6.0;;;;;;;-3.0;100.0;100110;;;;
2022/12/14 03:44:07;;;;;;;6.2;6.0;;;;;;;-3.0;100.0;100110;;;;
2022/12/14 03:45:10;;;;;;;4.8;4.7;;;;;;;-2.9;100.0;100110;;;;
2022/12/14 03:46:10;;;;;;;4.8;4.7;;;;;;;-2.9;100.0;100110;;;;
2022/12/14 03:47:00;;;;;;;4.8;4.7;;;;;;;-2.9;100.0;100110;;;;
2022/12/14 03:48:10;;;;;;;4.8;4.7;;;;;;;-2.9;100.0;100110;;;;
2022/12/14 03:49:10;;;;;;;4.8;4.7;;;;;;;-3.0;100.0;100110;;;;
2022/12/14 03:50:03;;;;;;;4.8;4.7;;;;;;;-3.0;100.0;100110;;;;
2022/12/14 03:51:05;;;;;;;4.8;4.7;;;;;;;-2.9;100.0;100110;;;;
2022/12/14 03:52:04;;;;;;;4.8;4.7;;;;;;;-2.9;100.0;100110;;;;
2022/12/14 03:53:10;;;;;;;4.8;4.7;;;;;;;-3.0;100.0;100110;;;;
2022/12/14 03:54:00;;;;;;;4.8;4.7;;;;;;;-3.0;100.0;100110;;;;
2022/12/14 03:55:07;;;;;;;4.8;4.7;;;;;;;-3.0;100.0;100100;;;;
2022/12/14 03:56:06;;;;;;;4.8;4.7;;;;;;;-3.0;100.0;100100;;;;
2022/12/14 03:57:05;;;;;;;4.8;4.7;;;;;;;-2.9;100.0;100100;;;;
2022/12/14 03:58:03;;;;;;;4.8;4.7;;;;;;;-2.9;100.0;100100;;;;
2022/12/14 03:59:06;;;;;;;4.8;4.7;;;;;;;-3.0;100.0;100090;;;;
2022/12/14 04:00:09;;;;;;;4.8;4.7;;;;;;;-3.0;100.0;100090;;;;
2022/12/14 04:01:10;;;;;;;4.8;4.7;;;;;;;-3.0;100.0;100090;;;;
2022/12/14 04:02:10;;;;;;;4.8;4.7;;;;;;;-3.0;100.0;100090;;;;
2022/12/14 04:03:07;;;;;;;4.8;4.7;;;;;;;-3.0;100.0;100090;;;;
2022/12/14 04:04:04;;;;;;;4.8;4.7;;;;;;;-3.0;100.0;100090;;;;
2022/12/14 04:05:05;;;;;;;4.3;4.2;;;;;;;-3.0;100.0;100080;;;;
2022/12/14 04:06:04;;;;;;;4.3;4.2;;;;;;;-3.0;100.0;100080;;;;
2022/12/14 04:07:10;;;;;;;4.3;4.2;;;;;;;-3.0;100.0;100090;;;;
2022/12/14 04:08:05;;;;;;;4.3;4.2;;;;;;;-3.0;100.0;100090;;;;
2022/12/14 04:09:00;;;;;;;4.3;4.2;;;;;;;-3.0;100.0;100080;;;;
2022/12/14 04:18:55;;;;;;;4.3;4.2;;;;;;;-3.0;100.0;100080;;;;
2022/12/14 04:19:04;;;;;;;4.3;4.2;;;;;;;-3.0;100.0;100070;;;;
2022/12/14 04:20:04;;;;;;;4.3;4.2;;;;;;;-3.0;100.0;100070;;;;
2022/12/14 04:21:04;;;;;;;4.3;4.2;;;;;;;-2.9;100.0;100070;;;;
2022/12/14 04:22:03;;;;;;;4.3;4.2;;;;;;;-2.9;100.0;100070;;;;
2022/12/14 04:23:02;;;;;;;4.3;4.2;;;;;;;-3.0;100.0;100060;;;;
2022/12/14 04:26:03;;;;;;;4.7;4.6;;;;;;;-3.0;100.0;100070;;;;
2022/12/14 04:27:04;;;;;;;4.7;4.6;;;;;;;-3.0;100.0;100070;;;;
2022/12/14 04:28:01;;;;;;;4.7;4.6;;;;;;;-3.0;100.0;100070;;;;
2022/12/14 04:30:01;;;;;;;4.7;4.6;;;;;;;-3.0;100.0;100060;;;;
2022/12/14 04:31:03;;;;;;;4.7;4.6;;;;;;;-2.9;100.0;100060;;;;
2022/12/14 04:32:04;;;;;;;4.7;4.6;;;;;;;-2.9;100.0;100060;;;;
2022/12/14 04:33:45;;;;;;;4.7;4.6;;;;;;;-3.0;100.0;100060;;;;
2022/12/14 04:34:02;;;;;;;4.7;4.6;;;;;;;-3.0;100.0;100060;;;;
2022/12/14 04:35:07;;;;;;;4.7;4.6;;;;;;;-3.1;100.0;100060;;;;
2022/12/14 04:36:01;;;;;;;4.7;4.6;;;;;;;-3.1;100.0;100060;;;;
2022/12/14 04:37:03;;;;;;;4.7;4.6;;;;;;;-3.1;100.0;100050;;;;
2022/12/14 04:38:03;;;;;;;4.7;4.6;;;;;;;-3.1;100.0;100050;;;;
2022/12/14 04:39:10;;;;;;;4.7;4.6;;;;;;;-3.0;100.0;100050;;;;
2022/12/14 04:40:04;;;;;;;4.7;4.6;;;;;;;-3.0;100.0;100050;;;;
2022/12/14 04:41:03;;;;;;;4.7;4.6;;;;;;;-3.1;100.0;100040;;;;
2022/12/14 04:42:01;;;;;;;4.7;4.6;;;;;;;-3.1;100.0;100040;;;;
2022/12/14 04:43:03;;;;;;;4.7;4.6;;;;;;;-3.0;100.0;100040;;;;
2022/12/14 04:44:03;;;;;;;4.4;4.3;;;;;;;-3.0;100.0;100040;;;;
2022/12/14 04:45:10;;;;;;;4.4;4.3;;;;;;;-3.0;100.0;100040;;;;
2022/12/14 04:46:04;;;;;;;4.4;4.3;;;;;;;-3.0;100.0;100040;;;;
2022/12/14 04:47:01;;;;;;;4.4;4.3;;;;;;;-2.9;100.0;100030;;;;
2022/12/14 04:48:10;;;;;;;4.4;4.3;;;;;;;-2.9;100.0;100030;;;;
2022/12/14 04:49:02;;;;;;;4.4;4.3;;;;;;;-2.9;100.0;100040;;;;
2022/12/14 04:50:10;;;;;;;4.4;4.3;;;;;;;-2.9;100.0;100040;;;;
2022/12/14 04:51:06;;;;;;;4.4;4.3;;;;;;;-3.0;100.0;100040;;;;
2022/12/14 04:52:06;;;;;;;4.4;4.3;;;;;;;-3.0;100.0;100040;;;;
2022/12/14 04:53:05;;;;;;;4.4;4.3;;;;;;;-3.0;100.0;100040;;;;
2022/12/14 04:54:07;;;;;;;4.4;4.3;;;;;;;-3.0;100.0;100040;;;;
2022/12/14 04:55:07;;;;;;;4.4;4.3;;;;;;;-2.9;100.0;100040;;;;
2022/12/14 04:56:07;;;;;;;4.4;4.3;;;;;;;-2.9;100.0;100040;;;;
2022/12/14 04:57:07;;;;;;;4.4;4.3;;;;;;;-3.0;100.0;100040;;;;
2022/12/14 04:58:04;;;;;;;4.4;4.3;;;;;;;-3.0;100.0;100040;;;;
2022/12/14 04:59:00;;;;;;;4.4;4.3;;;;;;;-3.0;100.0;100040;;;;
2022/12/14 05:00:00;;;;;;;4.4;4.3;;;;;;;-3.0;100.0;100040;;;;
2022/12/14 05:01:10;;;;;;;4.4;4.3;;;;;;;-2.9;100.0;100040;;;;
2022/12/14 05:02:10;;;;;;;4.4;4.3;;;;;;;-2.9;100.0;100040;;;;
2022/12/14 05:03:00;;;;;;;4.4;4.3;;;;;;;-3.0;100.0;100030;;;;
2022/12/14 05:04:09;;;;;;;4.8;4.7;;;;;;;-3.0;100.0;100030;;;;
2022/12/14 05:05:07;;;;;;;4.8;4.7;;;;;;;-3.0;100.0;100030;;;;
2022/12/14 05:06:00;;;;;;;4.8;4.7;;;;;;;-3.0;100.0;100030;;;;
2022/12/14 05:07:00;;;;;;;4.8;4.7;;;;;;;-3.0;100.0;100020;;;;
2022/12/14 05:08:10;;;;;;;4.8;4.7;;;;;;;-3.0;100.0;100020;;;;
2022/12/14 05:09:08;;;;;;;4.8;4.7;;;;;;;-2.9;100.0;100020;;;;
2022/12/14 05:10:05;;;;;;;4.8;4.7;;;;;;;-2.9;100.0;100020;;;;
2022/12/14 05:11:17;;;;;;;4.8;4.7;;;;;;;-3.0;100.0;100020;;;;
2022/12/14 05:12:10;;;;;;;4.8;4.7;;;;;;;-3.0;100.0;100020;;;;
2022/12/14 05:13:04;;;;;;;4.8;4.7;;;;;;;-2.9;100.0;100020;;;;
2022/12/14 05:14:05;;;;;;;4.8;4.7;;;;;;;-2.9;100.0;100020;;;;
2022/12/14 05:15:04;;;;;;;4.8;4.7;;;;;;;-3.0;100.0;100020;;;;
2022/12/14 05:16:00;;;;;;;4.8;4.7;;;;;;;-3.0;100.0;100020;;;;
2022/12/14 05:17:08;;;;;;;4.8;4.7;;;;;;;-2.9;100.0;100010;;;;
2022/12/14 05:18:02;;;;;;;4.8;4.7;;;;;;;-2.9;100.0;100010;;;;
2022/12/14 05:19:00;;;;;;;4.8;4.7;;;;;;;-2.9;100.0;100010;;;;
2022/12/14 05:20:00;;;;;;;4.8;4.7;;;;;;;-2.9;100.0;100010;;;;
2022/12/14 05:21:00;;;;;;;4.8;4.7;;;;;;;-2.9;100.0;100010;;;;
2022/12/14 05:22:03;;;;;;;4.8;4.7;;;;;;;-2.9;100.0;100010;;;;
2022/12/14 05:23:00;;;;;;;4.8;4.7;;;;;;;-3.0;100.0;100010;;;;
2022/12/14 05:24:01;;;;;;;5.0;4.9;;;;;;;-3.0;100.0;100010;;;;
2022/12/14 05:25:00;;;;;;;5.0;4.9;;;;;;;-3.0;100.0;100010;;;;
2022/12/14 05:26:00;;;;;;;5.0;4.9;;;;;;;-3.0;100.0;100010;;;;
2022/12/14 05:27:00;;;;;;;5.0;4.9;;;;;;;-3.0;100.0;100000;;;;
2022/12/14 05:28:00;;;;;;;5.0;4.9;;;;;;;-3.0;100.0;100000;;;;
2022/12/14 05:29:00;;;;;;;5.0;4.9;;;;;;;-3.0;100.0;100000;;;;
2022/12/14 05:30:00;;;;;;;5.0;4.9;;;;;;;-3.0;100.0;100000;;;;
2022/12/14 05:31:00;;;;;;;5.0;4.9;;;;;;;-3.0;100.0;100000;;;;
2022/12/14 05:32:00;;;;;;;5.0;4.9;;;;;;;-3.0;100.0;100000;;;;
2022/12/14 05:33:00;;;;;;;5.0;4.9;;;;;;;-3.0;100.0;100000;;;;
2022/12/14 05:34:00;;;;;;;5.0;4.9;;;;;;;-3.0;100.0;100000;;;;
2022/12/14 05:35:01;;;;;;;5.0;4.9;;;;;;;-2.9;100.0;100000;;;;
2022/12/14 05:36:00;;;;;;;5.0;4.9;;;;;;;-2.9;100.0;100000;;;;
2022/12/14 05:37:00;;;;;;;5.0;4.9;;;;;;;-2.9;100.0;100010;;;;
2022/12/14 05:38:00;;;;;;;5.0;4.9;;;;;;;-2.9;100.0;100010;;;;
2022/12/14 05:39:00;;;;;;;5.0;4.9;;;;;;;-2.9;100.0;100000;;;;
2022/12/14 05:40:00;;;;;;;5.0;4.9;;;;;;;-2.9;100.0;100000;;;;
2022/12/14 05:41:00;;;;;;;5.0;4.9;;;;;;;-2.9;100.0;100000;;;;
2022/12/14 05:42:00;;;;;;;5.0;4.9;;;;;;;-2.9;100.0;100000;;;;
2022/12/14 05:43:04;;;;;;;5.0;4.9;;;;;;;-3.0;100.0;100000;;;;
2022/12/14 05:44:00;;;;;;;5.0;4.9;;;;;;;-3.0;100.0;100000;;;;
2022/12/14 05:45:00;;;;;;;5.0;4.9;;;;;;;-2.9;100.0;100000;;;;
2022/12/14 05:46:01;;;;;;;5.0;4.9;;;;;;;-2.9;100.0;100000;;;;
2022/12/14 05:47:00;;;;;;;5.0;4.9;;;;;;;-2.7;100.0;100000;;;;
2022/12/14 05:48:00;;;;;;;5.0;4.9;;;;;;;-2.7;100.0;100000;;;;
2022/12/14 05:49:01;;;;;;;5.0;4.9;;;;;;;-2.8;100.0;100000;;;;
2022/12/14 05:50:00;;;;;;;5.0;4.9;;;;;;;-2.8;100.0;100000;;;;
2022/12/14 05:51:08;;;;;;;5.0;4.9;;;;;;;-3.0;100.0;100000;;;;
2022/12/14 05:52:00;;;;;;;5.0;4.9;;;;;;;-3.0;100.0;100000;;;;
2022/12/14 05:53:00;;;;;;;5.0;4.9;;;;;;;-2.9;100.0;100000;;;;
2022/12/14 05:54:00;;;;;;;5.0;4.9;;;;;;;-2.9;100.0;100000;;;;
2022/12/14 05:55:05;;;;;;;5.0;4.9;;;;;;;-3.0;100.0;100000;;;;
2022/12/14 05:56:00;;;;;;;5.0;4.9;;;;;;;-3.0;100.0;100000;;;;
2022/12/14 05:57:00;;;;;;;5.0;4.9;;;;;;;-2.9;100.0;100000;;;;
2022/12/14 05:58:00;;;;;;;5.0;4.9;;;;;;;-2.9;100.0;100000;;;;
2022/12/14 05:59:01;;;;;;;5.0;4.9;;;;;;;-3.0;100.0;100000;;;;
2022/12/14 06:00:00;;;;;;;5.0;4.9;;;;;;;-3.0;100.0;100000;;;;
2022/12/14 06:01:01;;;;;;;5.0;4.9;;;;;;;-3.1;100.0;100000;;;;
2022/12/14 06:02:01;;;;;;;5.0;4.9;;;;;;;-3.1;100.0;100000;;;;
2022/12/14 06:03:00;;;;;;;5.0;4.9;;;;;;;-3.0;100.0;100000;;;;
2022/12/14 06:04:00;;;;;;;5.0;4.9;;;;;;;-3.0;100.0;100000;;;;
2022/12/14 06:05:00;;;;;;;5.0;4.9;;;;;;;-2.8;100.0;100000;;;;
2022/12/14 06:06:01;;;;;;;5.0;4.9;;;;;;;-2.8;100.0;100000;;;;
2022/12/14 06:07:00;;;;;;;5.0;4.9;;;;;;;-2.9;100.0;100000;;;;
2022/12/14 06:08:00;;;;;;;5.0;4.9;;;;;;;-2.9;100.0;100000;;;;
2022/12/14 06:09:00;;;;;;;5.0;4.9;;;;;;;-2.9;100.0;99990;;;;
2022/12/14 06:10:00;;;;;;;5.0;4.9;;;;;;;-2.9;100.0;99990;;;;
2022/12/14 06:11:02;;;;;;;5.0;4.9;;;;;;;-3.0;100.0;99990;;;;
2022/12/14 06:12:00;;;;;;;5.0;4.9;;;;;;;-3.0;100.0;99990;;;;
2022/12/14 06:13:00;;;;;;;5.0;4.9;;;;;;;-3.1;100.0;99990;;;;
2022/12/14 06:14:00;;;;;;;5.0;4.9;;;;;;;-3.1;100.0;99990;;;;
2022/12/14 06:15:00;;;;;;;5.0;4.9;;;;;;;-3.1;100.0;99990;;;;
2022/12/14 06:16:10;;;;;;;5.0;4.9;;;;;;;-3.1;100.0;99990;;;;
2022/12/14 06:17:00;;;;;;;5.0;4.9;;;;;;;-3.1;100.0;99990;;;;
2022/12/14 06:18:00;;;;;;;5.0;4.9;;;;;;;-3.1;100.0;99990;;;;
2022/12/14 06:19:02;;;;;;;5.0;4.9;;;;;;;-3.2;100.0;99990;;;;
2022/12/14 06:20:00;;;;;;;5.0;4.9;;;;;;;-3.2;100.0;99990;;;;
2022/12/14 06:21:00;;;;;;;5.0;4.9;;;;;;;-3.0;100.0;99990;;;;
2022/12/14 06:22:00;;;;;;;5.0;4.9;;;;;;;-3.0;100.0;99990;;;;
2022/12/14 06:23:00;;;;;;;5.0;4.9;;;;;;;-3.1;100.0;99990;;;;
2022/12/14 06:24:00;;;;;;;5.1;5.0;;;;;;;-3.1;100.0;99990;;;;
2022/12/14 06:25:00;;;;;;;5.1;5.0;;;;;;;-3.1;100.0;99990;;;;
2022/12/14 06:26:00;;;;;;;5.1;5.0;;;;;;;-3.1;100.0;99990;;;;
2022/12/14 06:27:00;;;;;;;5.1;5.0;;;;;;;-3.2;100.0;99990;;;;
2022/12/14 06:28:00;;;;;;;5.1;5.0;;;;;;;-3.2;100.0;99990;;;;
2022/12/14 06:29:00;;;;;;;5.1;5.0;;;;;;;-3.1;100.0;99990;;;;
2022/12/14 06:30:00;;;;;;;5.1;5.0;;;;;;;-3.1;100.0;99990;;;;
2022/12/14 06:31:00;;;;;;;5.1;5.0;;;;;;;-3.2;100.0;99990;;;;
2022/12/14 06:32:00;;;;;;;5.1;5.0;;;;;;;-3.2;100.0;99990;;;;
2022/12/14 06:33:00;;;;;;;5.1;5.0;;;;;;;-3.1;100.0;99990;;;;
2022/12/14 06:34:01;;;;;;;5.1;5.0;;;;;;;-3.1;100.0;99990;;;;
2022/12/14 06:35:00;;;;;;;5.1;5.0;;;;;;;-3.1;100.0;99990;;;;